Time;durP1;ratioP1;P1;durP2;ratioP2;P2;SDS_P1;SDS_P2;PMS_P1;PMS_P2;Temp;Humidity;BMP_temperature;BMP_pressure;BME280_temperature;BME280_humidity;BME280_pressure;Samples;Min_cycle;Max_cycle;Signal;HPM_P1;HPM_P2
2021/09/16 00:00:54;;;;;;;3.38;1.65;;;;;;;20.25;65.51;97190.00;5005381;28;20025;-46
2021/09/16 00:03:20;;;;;;;3.05;1.73;;;;;;;20.20;65.19;97195.66;5006156;28;20653;-45
2021/09/16 00:05:45;;;;;;;3.28;1.60;;;;;;;20.24;65.20;97200.16;4986783;28;20843;-48
2021/09/16 00:08:11;;;;;;;2.75;1.67;;;;;;;20.25;65.54;97206.50;4985434;28;20026;-47
2021/09/16 00:10:36;;;;;;;3.25;1.60;;;;;;;20.27;65.38;97207.00;4986382;28;20037;-47
2021/09/16 00:13:01;;;;;;;3.25;1.80;;;;;;;20.20;65.62;97201.16;4986459;28;20026;-46
2021/09/16 00:15:27;;;;;;;3.67;1.60;;;;;;;20.16;65.75;97203.69;4985046;28;20019;-47
2021/09/16 00:17:52;;;;;;;3.17;1.45;;;;;;;20.10;66.08;97200.31;5005324;28;20052;-47
2021/09/16 00:20:17;;;;;;;5.50;1.70;;;;;;;20.05;66.43;97203.19;4984529;28;20785;-50
2021/09/16 00:22:43;;;;;;;3.47;1.75;;;;;;;20.12;66.35;97200.78;4983579;28;20430;-45
2021/09/16 00:25:09;;;;;;;3.97;1.98;;;;;;;20.24;65.82;97199.38;4985066;28;20049;-49
2021/09/16 00:27:34;;;;;;;5.45;1.85;;;;;;;20.22;65.68;97196.13;4985372;28;20028;-45
2021/09/16 00:29:59;;;;;;;2.40;1.40;;;;;;;20.24;65.65;97199.38;4978586;28;20034;-47
2021/09/16 00:32:25;;;;;;;4.30;1.90;;;;;;;20.17;65.88;97196.28;4982027;28;20018;-49
2021/09/16 00:34:50;;;;;;;3.95;1.42;;;;;;;20.17;65.64;97204.53;4986487;28;20022;-47
2021/09/16 00:37:16;;;;;;;3.03;1.70;;;;;;;20.16;65.75;97203.69;4985765;28;20064;-46
2021/09/16 00:39:41;;;;;;;2.78;1.40;;;;;;;20.14;65.53;97208.72;4986094;28;20058;-47
2021/09/16 00:42:07;;;;;;;2.75;1.45;;;;;;;20.20;65.71;97206.66;4983806;28;20397;-47
2021/09/16 00:44:32;;;;;;;2.42;1.45;;;;;;;20.25;65.56;97206.50;4985929;28;20030;-47
2021/09/16 00:46:57;;;;;;;4.03;1.50;;;;;;;20.22;65.53;97204.38;4986843;28;20644;-46
2021/09/16 00:49:23;;;;;;;3.65;1.80;;;;;;;20.13;65.32;97204.38;4984087;28;20164;-45
2021/09/16 00:51:48;;;;;;;2.13;1.25;;;;;;;20.10;65.70;97208.56;4985762;28;20445;-44
2021/09/16 00:54:16;;;;;;;3.35;1.42;;;;;;;20.12;65.76;97206.28;4985831;28;20034;-48
2021/09/16 00:56:44;;;;;;;2.90;1.60;;;;;;;20.19;65.07;97208.56;4985656;28;20094;-45
2021/09/16 00:59:10;;;;;;;3.17;1.40;;;;;;;20.22;65.08;97220.88;5000015;28;20030;-47
2021/09/16 01:01:35;;;;;;;5.68;1.50;;;;;;;20.16;65.43;97219.41;4999791;28;20023;-46
2021/09/16 01:04:01;;;;;;;3.45;1.48;;;;;;;20.17;65.14;97212.78;4985708;28;20072;-51
2021/09/16 01:06:27;;;;;;;3.20;1.92;;;;;;;20.11;65.29;97215.66;4985487;28;20034;-50
2021/09/16 01:08:53;;;;;;;3.60;1.40;;;;;;;20.09;65.73;97215.16;4985443;28;20026;-47
2021/09/16 01:11:20;;;;;;;4.22;1.67;;;;;;;20.14;65.47;97209.53;4985575;28;20081;-45
2021/09/16 01:13:46;;;;;;;2.38;1.35;;;;;;;20.14;65.50;97214.22;4987843;28;20046;-47
2021/09/16 01:16:11;;;;;;;4.13;1.52;;;;;;;20.16;65.78;97222.16;5001433;28;20030;-47
2021/09/16 01:18:36;;;;;;;3.88;1.30;;;;;;;20.16;65.58;97216.66;5004585;28;20033;-47
2021/09/16 01:21:02;;;;;;;3.00;1.30;;;;;;;20.24;65.77;97221.38;5004771;28;20393;-47
2021/09/16 01:23:27;;;;;;;2.85;1.52;;;;;;;20.21;65.55;97222.81;5005190;28;20037;-46
2021/09/16 01:25:53;;;;;;;3.45;1.50;;;;;;;20.21;65.31;97222.81;5005015;28;20081;-48
2021/09/16 01:28:18;;;;;;;3.60;1.58;;;;;;;20.22;65.33;97220.88;5004805;28;20057;-47
2021/09/16 01:30:47;;;;;;;2.13;1.20;;;;;;;20.15;65.69;97215.84;4986040;28;20038;-49
2021/09/16 01:33:12;;;;;;;2.95;1.60;;;;;;;20.10;65.56;97213.25;4992047;28;20413;-46
2021/09/16 01:35:38;;;;;;;4.72;1.50;;;;;;;20.20;65.53;97207.44;5005453;28;20014;-50
2021/09/16 01:38:03;;;;;;;3.13;1.48;;;;;;;20.16;65.69;97211.16;5005019;28;20069;-47
2021/09/16 01:40:29;;;;;;;2.60;1.38;;;;;;;20.14;65.85;97204.06;5008644;28;20025;-46
2021/09/16 01:42:54;;;;;;;2.90;1.40;;;;;;;20.16;65.87;97200.16;4996016;28;20026;-45
2021/09/16 01:45:23;;;;;;;2.97;1.30;;;;;;;20.09;65.90;97206.13;4989146;28;20095;-48
2021/09/16 01:47:48;;;;;;;2.47;1.42;;;;;;;20.02;66.22;97196.41;4988535;28;20029;-45
2021/09/16 01:50:16;;;;;;;2.60;1.40;;;;;;;20.12;66.13;97192.56;4988749;28;20401;-46
2021/09/16 01:52:41;;;;;;;2.65;1.40;;;;;;;20.21;65.83;97197.25;4989137;28;20022;-45
2021/09/16 01:55:08;;;;;;;2.25;1.40;;;;;;;20.28;65.75;97192.91;4988856;28;20088;-45
2021/09/16 01:57:33;;;;;;;2.85;1.30;;;;;;;20.25;65.64;97187.25;4988860;28;20030;-50
2021/09/16 01:59:59;;;;;;;3.00;1.60;;;;;;;20.18;65.58;97184.16;4988678;28;20112;-46
2021/09/16 02:02:25;;;;;;;3.17;1.92;;;;;;;20.13;65.75;97188.66;4988682;28;20053;-47
2021/09/16 02:04:50;;;;;;;4.20;1.50;;;;;;;20.11;65.63;97188.19;4988841;28;20494;-44
2021/09/16 02:07:15;;;;;;;3.53;1.45;;;;;;;20.11;65.73;97182.69;4988947;28;20022;-45
2021/09/16 02:09:41;;;;;;;3.38;1.42;;;;;;;20.06;65.99;97191.09;4988893;28;20022;-47
2021/09/16 02:12:06;;;;;;;4.88;1.65;;;;;;;20.12;65.81;97181.56;4987828;28;20065;-45
2021/09/16 02:14:32;;;;;;;2.38;1.10;;;;;;;20.09;65.89;97187.69;4989081;28;20030;-47
2021/09/16 02:16:57;;;;;;;3.17;1.20;;;;;;;20.08;65.87;97183.31;4999652;28;20113;-47
2021/09/16 02:19:22;;;;;;;2.53;1.30;;;;;;;20.07;65.54;97180.88;5008226;28;20117;-45
2021/09/16 02:21:48;;;;;;;2.63;1.15;;;;;;;20.11;65.53;97181.88;4992839;28;20034;-48
2021/09/16 02:24:13;;;;;;;3.80;1.40;;;;;;;20.15;65.36;97180.09;4988457;28;20049;-47
2021/09/16 02:26:38;;;;;;;5.25;1.40;;;;;;;20.17;65.17;97177.84;4988179;28;20417;-46
2021/09/16 02:29:04;;;;;;;2.35;1.13;;;;;;;20.09;65.96;97176.69;4987922;28;20052;-45
2021/09/16 02:31:29;;;;;;;2.50;1.38;;;;;;;20.06;65.89;97173.78;5004405;28;20053;-48
2021/09/16 02:33:55;;;;;;;3.42;1.17;;;;;;;20.05;65.87;97172.97;5008036;28;20026;-46
2021/09/16 02:36:20;;;;;;;2.08;1.10;;;;;;;20.02;65.98;97168.13;5006501;28;20128;-48
2021/09/16 02:38:45;;;;;;;3.17;1.20;;;;;;;19.99;66.26;97160.50;5007200;28;20025;-45
2021/09/16 02:41:11;;;;;;;2.42;1.40;;;;;;;20.06;66.04;97163.63;5007351;28;20443;-46
2021/09/16 02:43:36;;;;;;;2.40;1.25;;;;;;;20.08;65.76;97166.03;5007096;28;20497;-45
2021/09/16 02:46:02;;;;;;;2.45;1.10;;;;;;;20.09;65.82;97165.69;4984946;28;20042;-46
2021/09/16 02:48:27;;;;;;;4.32;1.17;;;;;;;20.04;65.96;97171.34;4967635;28;20037;-47
2021/09/16 02:50:53;;;;;;;3.78;1.25;;;;;;;20.08;65.46;97177.81;4982800;28;20588;-46
2021/09/16 02:53:18;;;;;;;1.50;0.98;;;;;;;20.08;65.65;97175.06;4988193;28;20121;-47
2021/09/16 02:55:44;;;;;;;1.98;1.00;;;;;;;20.07;65.61;97164.41;4988181;28;20109;-48
2021/09/16 02:58:09;;;;;;;2.08;1.20;;;;;;;20.09;65.83;97179.44;4988102;28;20026;-45
2021/09/16 03:00:35;;;;;;;4.20;2.08;;;;;;;20.03;65.90;97180.72;4987169;28;20022;-46
2021/09/16 03:03:00;;;;;;;2.55;1.10;;;;;;;20.08;65.69;97177.81;4988066;28;20109;-46
2021/09/16 03:05:26;;;;;;;2.65;1.10;;;;;;;20.16;65.69;97181.72;4987752;28;20064;-47
2021/09/16 03:07:51;;;;;;;2.40;1.00;;;;;;;20.20;65.16;97177.19;4987853;28;20556;-46
2021/09/16 03:10:16;;;;;;;4.13;1.25;;;;;;;20.22;65.37;97171.38;4987905;28;20064;-46
2021/09/16 03:12:42;;;;;;;3.78;1.15;;;;;;;20.24;65.21;97169.13;4987037;28;20023;-45
2021/09/16 03:15:08;;;;;;;4.05;1.20;;;;;;;20.19;65.61;97170.09;4984077;28;20027;-47
2021/09/16 03:17:34;;;;;;;2.47;1.15;;;;;;;20.15;65.44;97160.88;4967574;28;20062;-47
2021/09/16 03:19:59;;;;;;;2.20;1.10;;;;;;;20.18;65.41;97171.22;5001276;28;20061;-47
2021/09/16 03:22:24;;;;;;;5.47;1.38;;;;;;;20.26;65.27;97167.69;5006551;28;20485;-47
2021/09/16 03:24:50;;;;;;;2.97;1.20;;;;;;;20.33;65.17;97158.97;5006834;28;20065;-45
2021/09/16 03:27:15;;;;;;;2.85;1.00;;;;;;;20.31;65.00;97166.72;5007048;28;20022;-46
2021/09/16 03:29:40;;;;;;;2.60;1.13;;;;;;;20.30;65.43;97156.06;4996719;28;20126;-45
2021/09/16 03:32:06;;;;;;;2.85;1.08;;;;;;;20.26;65.09;97162.19;4986908;28;20022;-46
2021/09/16 03:34:32;;;;;;;2.40;1.30;;;;;;;20.24;64.96;97155.41;4987775;28;20026;-50
2021/09/16 03:36:57;;;;;;;2.25;1.10;;;;;;;20.26;64.77;97164.94;4986906;28;20038;-47
2021/09/16 03:39:22;;;;;;;4.65;1.40;;;;;;;20.16;65.60;97158.94;4987181;28;20034;-46
2021/09/16 03:41:48;;;;;;;2.78;1.20;;;;;;;20.12;65.27;97162.31;4986681;28;20027;-46
2021/09/16 03:44:13;;;;;;;2.58;1.10;;;;;;;20.12;65.23;97167.81;4986684;28;20088;-45
2021/09/16 03:46:38;;;;;;;2.03;1.10;;;;;;;20.24;65.20;97169.13;4987744;28;20522;-45
2021/09/16 03:49:04;;;;;;;3.42;1.30;;;;;;;20.31;65.16;97168.66;4987032;28;20041;-48
2021/09/16 03:51:29;;;;;;;3.70;1.40;;;;;;;20.33;64.71;97161.72;4986330;28;20629;-46
2021/09/16 03:53:54;;;;;;;2.05;1.15;;;;;;;20.34;65.27;97170.78;4986577;28;20069;-45
2021/09/16 03:56:20;;;;;;;6.20;1.20;;;;;;;20.33;64.83;97164.47;4987050;28;20058;-50
2021/09/16 03:58:45;;;;;;;3.00;0.98;;;;;;;20.34;64.96;97173.53;4986641;28;20022;-47
2021/09/16 04:01:11;;;;;;;5.22;1.60;;;;;;;20.32;64.92;97171.09;4985477;28;20034;-49
2021/09/16 04:03:36;;;;;;;5.97;2.90;;;;;;;20.28;64.92;97168.16;4986412;28;20046;-49
2021/09/16 04:06:01;;;;;;;4.07;2.00;;;;;;;20.25;64.67;97165.25;4984788;28;20478;-46
2021/09/16 04:08:27;;;;;;;6.88;2.45;;;;;;;20.23;64.91;97162.81;4986370;28;20404;-47
2021/09/16 04:10:52;;;;;;;4.07;1.50;;;;;;;20.25;64.92;97166.06;4986340;28;20030;-46
2021/09/16 04:13:17;;;;;;;3.40;1.35;;;;;;;20.26;64.54;97164.94;4985739;28;20500;-47
2021/09/16 04:15:43;;;;;;;4.50;1.40;;;;;;;20.25;64.95;97168.00;4987742;28;20857;-48
2021/09/16 04:18:08;;;;;;;3.88;1.10;;;;;;;20.22;64.72;97166.72;5005097;28;20062;-47
2021/09/16 04:20:33;;;;;;;2.13;1.10;;;;;;;20.20;64.72;97171.69;5005947;28;20049;-47
2021/09/16 04:22:59;;;;;;;2.05;1.05;;;;;;;20.20;64.72;97168.94;4983749;28;20197;-46
2021/09/16 04:25:24;;;;;;;2.03;1.10;;;;;;;20.20;64.82;97174.44;4986025;28;20061;-46
2021/09/16 04:27:49;;;;;;;3.22;1.58;;;;;;;20.19;64.60;97172.84;4986411;28;20034;-45
2021/09/16 04:30:15;;;;;;;3.97;1.70;;;;;;;20.19;64.74;97174.78;4988648;28;20030;-46
2021/09/16 04:32:40;;;;;;;4.07;1.88;;;;;;;20.17;64.89;97177.84;4985934;28;20724;-47
2021/09/16 04:35:07;;;;;;;3.10;1.40;;;;;;;20.18;65.19;97170.41;4986172;28;20552;-46
2021/09/16 04:37:33;;;;;;;3.47;1.33;;;;;;;20.21;64.72;97172.53;5000500;28;20073;-49
2021/09/16 04:39:58;;;;;;;4.30;1.40;;;;;;;20.22;65.03;97177.69;4986039;28;20060;-45
2021/09/16 04:42:23;;;;;;;3.72;1.80;;;;;;;20.24;64.62;97167.19;4985769;28;20092;-51
2021/09/16 04:44:49;;;;;;;4.80;1.55;;;;;;;20.25;64.67;97179.00;4987010;28;20026;-52
2021/09/16 04:47:14;;;;;;;3.45;1.42;;;;;;;20.26;65.04;97181.44;4977709;28;20031;-50
2021/09/16 04:49:39;;;;;;;2.80;1.35;;;;;;;20.26;65.05;97180.59;4974026;28;20034;-48
2021/09/16 04:52:05;;;;;;;3.03;1.48;;;;;;;20.27;65.07;97185.00;4985631;28;20052;-49
2021/09/16 04:54:30;;;;;;;4.85;1.80;;;;;;;20.27;65.21;97185.00;4985564;28;20038;-49
2021/09/16 04:56:56;;;;;;;3.03;1.50;;;;;;;20.27;65.06;97187.75;4985966;28;20553;-48
2021/09/16 04:59:21;;;;;;;5.25;1.60;;;;;;;20.28;65.03;97192.13;4984415;28;20538;-51
2021/09/16 05:01:46;;;;;;;3.58;1.60;;;;;;;20.27;64.99;97196.78;4983170;28;20704;-49
2021/09/16 05:04:12;;;;;;;4.82;1.73;;;;;;;20.26;65.32;97195.19;4986020;28;20032;-52
2021/09/16 05:06:37;;;;;;;3.45;1.60;;;;;;;20.22;65.43;97191.44;4985274;28;20419;-50
2021/09/16 05:09:03;;;;;;;3.63;1.60;;;;;;;20.24;65.42;97186.44;4985248;28;20041;-49
2021/09/16 05:11:28;;;;;;;3.45;1.73;;;;;;;20.28;65.56;97195.66;4990126;28;20611;-47
2021/09/16 05:13:53;;;;;;;2.92;1.50;;;;;;;20.25;65.62;97190.00;4995468;28;20017;-48
2021/09/16 05:16:19;;;;;;;3.70;1.42;;;;;;;20.24;65.77;97191.13;5000011;28;20501;-49
2021/09/16 05:18:44;;;;;;;3.58;1.85;;;;;;;20.26;65.74;97197.94;4991478;28;20031;-51
2021/09/16 05:21:11;;;;;;;4.35;1.40;;;;;;;20.27;65.90;97194.03;4984211;28;20030;-51
2021/09/16 05:23:37;;;;;;;3.25;1.48;;;;;;;20.13;66.67;97201.63;5002870;28;20060;-45
2021/09/16 05:26:03;;;;;;;3.30;1.50;;;;;;;20.20;66.36;97199.19;5003381;28;20109;-48
2021/09/16 05:28:28;;;;;;;3.65;1.30;;;;;;;20.25;66.44;97195.50;5000305;28;20026;-49
2021/09/16 05:30:54;;;;;;;1.85;1.25;;;;;;;20.22;66.37;97196.94;4994199;28;20045;-47
2021/09/16 05:33:19;;;;;;;3.42;1.52;;;;;;;20.21;66.33;97198.09;5003133;28;20030;-47
2021/09/16 05:35:44;;;;;;;4.45;2.13;;;;;;;20.24;66.40;97200.16;5002926;28;20025;-46
2021/09/16 05:38:10;;;;;;;3.60;1.33;;;;;;;20.28;66.18;97200.34;5002947;28;20057;-48
2021/09/16 05:40:35;;;;;;;4.25;1.30;;;;;;;20.26;66.37;97194.34;5003275;28;20036;-48
2021/09/16 05:43:01;;;;;;;2.22;1.00;;;;;;;20.30;66.34;97197.28;4985329;28;20028;-45
2021/09/16 05:45:26;;;;;;;3.80;1.50;;;;;;;20.31;66.52;97191.44;4977914;28;20027;-48
2021/09/16 05:47:52;;;;;;;4.85;1.20;;;;;;;20.28;66.57;97197.59;4980090;28;20461;-49
2021/09/16 05:50:17;;;;;;;2.50;1.30;;;;;;;20.30;66.48;97198.09;4983070;28;20736;-50
2021/09/16 05:52:43;;;;;;;3.30;1.50;;;;;;;20.31;66.33;97196.16;4984771;28;20719;-48
2021/09/16 05:55:10;;;;;;;3.03;1.70;;;;;;;20.30;66.39;97195.34;5003005;28;20396;-48
2021/09/16 05:57:35;;;;;;;3.47;1.35;;;;;;;20.25;66.94;97201.81;5002754;28;20114;-52
2021/09/16 06:00:03;;;;;;;3.67;1.38;;;;;;;20.28;66.71;97197.59;4994356;28;20807;-47
2021/09/16 06:02:29;;;;;;;3.83;1.40;;;;;;;20.31;66.61;97199.69;4991803;28;20030;-51
2021/09/16 06:04:54;;;;;;;2.67;1.33;;;;;;;20.34;66.38;97206.53;4984752;28;20445;-48
2021/09/16 06:07:19;;;;;;;4.15;1.70;;;;;;;20.34;66.35;97207.31;4984879;28;20042;-49
2021/09/16 06:09:45;;;;;;;3.47;1.40;;;;;;;20.27;67.07;97207.78;4990504;28;20034;-47
2021/09/16 06:12:10;;;;;;;3.58;1.38;;;;;;;20.16;67.77;97209.19;4993413;28;20032;-50
2021/09/16 06:14:36;;;;;;;3.38;1.40;;;;;;;20.09;67.83;97204.19;5003025;28;20056;-48
2021/09/16 06:17:02;;;;;;;5.03;1.65;;;;;;;20.02;68.13;97204.63;4983686;28;20105;-47
2021/09/16 06:19:27;;;;;;;5.55;1.30;;;;;;;20.07;67.57;97206.44;4978075;28;20031;-46
2021/09/16 06:21:54;;;;;;;5.53;2.10;;;;;;;20.18;67.11;97209.72;5000122;28;20712;-50
2021/09/16 06:24:19;;;;;;;4.35;2.15;;;;;;;20.07;67.71;97213.88;4990705;28;20026;-46
2021/09/16 06:26:44;;;;;;;3.75;2.00;;;;;;;20.06;67.81;97223.25;4990831;28;20038;-47
2021/09/16 06:29:10;;;;;;;4.05;2.05;;;;;;;20.09;67.97;97217.91;4988434;28;20026;-49
2021/09/16 06:31:36;;;;;;;3.67;1.85;;;;;;;20.15;67.35;97235.06;4988301;28;20030;-44
2021/09/16 06:34:02;;;;;;;6.30;2.22;;;;;;;20.19;67.39;97236.06;5001548;28;20053;-52
2021/09/16 06:36:27;;;;;;;2.88;1.55;;;;;;;20.25;66.79;97236.72;4995249;28;20057;-48
2021/09/16 06:38:52;;;;;;;4.45;1.90;;;;;;;20.23;66.75;97239.78;4988548;28;20057;-47
2021/09/16 06:41:18;;;;;;;7.63;2.33;;;;;;;20.22;67.04;97234.59;4990121;28;20510;-48
2021/09/16 06:43:43;;;;;;;4.32;2.47;;;;;;;20.14;67.02;97238.97;4997075;28;20521;-48
2021/09/16 06:46:09;;;;;;;4.22;2.45;;;;;;;20.21;66.99;97246.75;4996351;28;20040;-49
2021/09/16 06:48:34;;;;;;;7.47;2.33;;;;;;;20.25;66.63;97242.22;5002605;28;20041;-48
2021/09/16 06:50:59;;;;;;;4.82;2.00;;;;;;;20.26;66.45;97252.09;4980285;28;20054;-48
2021/09/16 06:53:25;;;;;;;5.03;2.53;;;;;;;20.27;66.87;97250.97;4987962;28;20022;-47
2021/09/16 06:55:50;;;;;;;4.10;2.20;;;;;;;20.26;66.74;97257.59;4997095;28;20453;-47
2021/09/16 06:58:15;;;;;;;4.13;2.50;;;;;;;20.19;67.26;97246.25;5000795;28;20531;-47
2021/09/16 07:00:41;;;;;;;7.70;3.60;;;;;;;20.17;67.15;97252.06;5005405;28;20029;-48
2021/09/16 07:03:06;;;;;;;5.05;2.45;;;;;;;20.23;66.46;97256.28;5002939;28;20517;-48
2021/09/16 07:05:31;;;;;;;4.80;2.80;;;;;;;20.27;66.51;97256.47;4984008;28;20026;-48
2021/09/16 07:07:57;;;;;;;5.45;3.00;;;;;;;20.27;66.55;97262.75;4990124;28;20110;-48
2021/09/16 07:10:22;;;;;;;5.25;2.97;;;;;;;20.30;66.28;97261.31;4990109;28;20058;-46
2021/09/16 07:12:48;;;;;;;4.75;2.28;;;;;;;20.31;67.44;97260.19;4979415;28;20058;-47
2021/09/16 07:15:13;;;;;;;4.55;2.35;;;;;;;20.34;67.42;97267.78;4997361;28;20118;-48
2021/09/16 07:17:39;;;;;;;4.28;2.67;;;;;;;20.24;67.51;97276.34;4990597;28;20030;-49
2021/09/16 07:20:05;;;;;;;5.90;2.97;;;;;;;20.26;67.46;97279.56;4992363;28;20578;-47
2021/09/16 07:22:30;;;;;;;3.85;2.25;;;;;;;20.26;67.20;97277.66;4980048;28;20034;-49
2021/09/16 07:24:56;;;;;;;6.60;2.30;;;;;;;20.24;67.57;97285.38;5005135;28;20029;-56
2021/09/16 07:27:21;;;;;;;3.30;1.88;;;;;;;20.29;67.50;97281.69;5004682;28;20111;-48
2021/09/16 07:29:46;;;;;;;4.20;2.13;;;;;;;20.25;67.20;97287.03;4985582;28;20104;-47
2021/09/16 07:32:12;;;;;;;6.30;1.70;;;;;;;20.23;67.22;97303.00;4991853;28;20444;-49
2021/09/16 07:34:37;;;;;;;3.35;1.70;;;;;;;20.27;67.07;97297.72;5002977;28;20022;-52
2021/09/16 07:37:03;;;;;;;2.83;1.42;;;;;;;20.30;67.15;97304.50;5019305;28;20032;-49
2021/09/16 07:39:28;;;;;;;2.67;1.60;;;;;;;20.30;67.12;97315.50;5004491;28;20030;-46
2021/09/16 07:41:54;;;;;;;3.00;1.45;;;;;;;20.29;67.02;97314.69;5004246;28;20053;-47
2021/09/16 07:44:19;;;;;;;2.88;1.30;;;;;;;20.21;67.02;97313.53;5004721;28;20087;-48
2021/09/16 07:46:45;;;;;;;2.50;1.10;;;;;;;20.17;66.63;97319.97;4994208;28;20045;-48
2021/09/16 07:49:10;;;;;;;3.60;1.42;;;;;;;20.07;67.20;97323.78;5004549;28;20779;-52
2021/09/16 07:51:36;;;;;;;2.97;1.20;;;;;;;20.15;66.85;97334.03;4992158;28;20030;-49
2021/09/16 07:54:01;;;;;;;2.75;1.15;;;;;;;20.16;66.71;97335.63;5004352;28;20029;-49
2021/09/16 07:56:27;;;;;;;1.45;0.80;;;;;;;20.18;66.72;97340.81;5000002;28;20030;-52
2021/09/16 07:58:52;;;;;;;2.78;1.10;;;;;;;20.07;66.83;97345.78;4986341;28;20030;-47
2021/09/16 08:01:17;;;;;;;1.80;0.80;;;;;;;20.08;66.43;97341.94;4986434;28;20064;-49
2021/09/16 08:03:43;;;;;;;2.35;1.08;;;;;;;20.12;66.66;97346.47;4986205;28;20030;-49
2021/09/16 08:06:09;;;;;;;2.55;1.10;;;;;;;20.19;66.52;97351.50;4985952;28;20617;-46
2021/09/16 08:08:34;;;;;;;3.22;1.27;;;;;;;20.17;66.40;97350.22;4986567;28;20038;-47
2021/09/16 08:11:00;;;;;;;2.25;1.00;;;;;;;20.17;66.46;97355.69;4985390;28;20022;-47
2021/09/16 08:13:25;;;;;;;3.80;1.13;;;;;;;20.16;66.42;97352.13;4984252;28;20018;-49
2021/09/16 08:15:52;;;;;;;1.88;1.10;;;;;;;20.22;66.14;97353.63;4996195;28;20125;-47
2021/09/16 08:18:18;;;;;;;1.60;0.88;;;;;;;20.18;66.18;97351.81;4988958;28;20041;-48
2021/09/16 08:20:48;;;;;;;1.85;1.15;;;;;;;20.10;66.29;97351.47;5002009;28;20077;-47
2021/09/16 08:23:14;;;;;;;2.40;1.13;;;;;;;20.14;66.26;97352.47;4986137;28;20054;-45
2021/09/16 08:25:39;;;;;;;2.53;1.00;;;;;;;20.16;66.23;97354.88;4986440;28;20083;-46
2021/09/16 08:28:04;;;;;;;2.50;1.17;;;;;;;20.18;65.99;97360.06;4989031;28;20033;-47
2021/09/16 08:30:30;;;;;;;2.05;0.95;;;;;;;20.20;65.69;97361.38;4998069;28;20080;-52
2021/09/16 08:32:56;;;;;;;2.33;1.00;;;;;;;20.14;65.78;97363.47;5002601;28;20018;-48
2021/09/16 08:35:21;;;;;;;5.13;1.30;;;;;;;20.15;65.76;97369.75;5003250;28;20060;-47
2021/09/16 08:37:47;;;;;;;1.85;1.13;;;;;;;20.15;65.90;97372.50;5012544;28;20030;-49
2021/09/16 08:40:13;;;;;;;1.77;1.00;;;;;;;20.19;65.74;97369.97;5003806;28;20048;-48
2021/09/16 08:42:41;;;;;;;2.65;1.50;;;;;;;20.10;65.46;97373.47;5000478;28;20036;-51
2021/09/16 08:45:11;;;;;;;2.85;1.48;;;;;;;20.12;65.56;97378.66;4971715;28;20026;-48
2021/09/16 08:47:38;;;;;;;2.78;1.60;;;;;;;20.11;65.48;97377.84;4985255;28;20060;-52
2021/09/16 08:50:04;;;;;;;2.63;1.73;;;;;;;20.08;65.73;97381.19;4985618;28;20034;-47
2021/09/16 08:52:30;;;;;;;3.40;1.92;;;;;;;20.07;65.52;97381.50;4985447;28;20036;-45
2021/09/16 08:54:55;;;;;;;3.58;2.38;;;;;;;20.08;65.37;97385.91;4986223;28;20029;-47
2021/09/16 08:57:21;;;;;;;3.55;1.95;;;;;;;20.09;65.42;97382.03;5000772;28;20398;-53
2021/09/16 08:59:46;;;;;;;4.82;2.90;;;;;;;19.96;64.55;97386.44;4985170;28;20564;-46
2021/09/16 09:02:12;;;;;;;3.95;2.03;;;;;;;20.01;65.30;97386.31;5000470;28;20030;-47
2021/09/16 09:04:38;;;;;;;4.22;2.30;;;;;;;19.96;65.17;97395.50;4985175;28;20060;-46
2021/09/16 09:07:04;;;;;;;3.00;1.77;;;;;;;20.09;65.34;97393.81;4985898;28;20034;-49
2021/09/16 09:09:31;;;;;;;3.80;2.05;;;;;;;20.09;65.22;97393.81;4983679;28;20069;-48
2021/09/16 09:11:58;;;;;;;3.78;2.30;;;;;;;20.01;64.65;97394.56;4984873;28;20061;-47
2021/09/16 09:14:27;;;;;;;7.03;3.03;;;;;;;19.98;64.28;97392.44;4992849;28;20088;-47
2021/09/16 09:16:52;;;;;;;4.30;2.67;;;;;;;19.97;64.48;97402.59;4983562;28;20080;-47
2021/09/16 09:19:20;;;;;;;4.85;2.38;;;;;;;20.04;64.85;97401.41;4996104;28;20473;-47
2021/09/16 09:21:46;;;;;;;5.85;3.65;;;;;;;20.00;64.54;97398.44;5001657;28;20034;-48
2021/09/16 09:24:11;;;;;;;7.20;2.55;;;;;;;20.11;65.04;97405.31;5011873;28;20026;-48
2021/09/16 09:26:38;;;;;;;6.82;2.40;;;;;;;20.19;64.85;97408.44;5001646;28;20034;-49
2021/09/16 09:29:07;;;;;;;3.90;2.50;;;;;;;20.19;64.53;97411.19;4997546;28;20052;-50
2021/09/16 09:31:38;;;;;;;7.57;3.92;;;;;;;20.08;64.18;97407.91;4996078;28;20096;-50
2021/09/16 09:34:40;;;;;;;6.22;3.47;;;;;;;20.07;64.83;97414.50;4998505;28;20026;-48
2021/09/16 09:37:17;;;;;;;5.20;3.30;;;;;;;20.08;64.08;97413.38;4999218;28;20548;-48
2021/09/16 09:39:47;;;;;;;5.88;3.45;;;;;;;20.00;64.38;97412.19;4999568;28;20041;-46
2021/09/16 09:42:24;;;;;;;4.97;3.33;;;;;;;20.04;64.23;97404.16;4989495;28;20623;-46
2021/09/16 09:44:55;;;;;;;6.72;3.63;;;;;;;20.09;63.90;97413.06;4991860;28;20516;-48
2021/09/16 09:47:43;;;;;;;6.47;4.00;;;;;;;20.02;64.06;97418.19;4989495;28;20026;-45
2021/09/16 09:50:35;;;;;;;6.47;3.90;;;;;;;20.07;64.29;97420.00;4997702;28;20036;-44
2021/09/16 09:53:11;;;;;;;;;;;;;;;20.04;63.63;97412.41;5002895;28;20547;-45
2021/09/16 09:55:40;;;;;;;5.93;4.10;;;;;;;20.10;63.98;97420.19;4987302;28;20380;-47
2021/09/16 09:58:05;;;;;;;7.10;4.40;;;;;;;20.11;64.02;97412.75;4997624;28;20037;-46
2021/09/16 10:00:31;;;;;;;8.27;4.78;;;;;;;20.11;64.00;97416.31;4997270;28;20032;-49
2021/09/16 10:02:56;;;;;;;7.38;4.65;;;;;;;20.10;63.67;97414.69;4989458;28;20026;-46
2021/09/16 10:05:30;;;;;;;6.82;4.93;;;;;;;20.08;63.96;97414.19;4998237;28;20109;-48
2021/09/16 10:08:17;;;;;;;7.70;5.20;;;;;;;20.08;63.84;97416.13;4989272;28;20570;-49
2021/09/16 10:10:47;;;;;;;9.57;5.70;;;;;;;20.10;63.94;97411.94;5006084;28;20046;-47
2021/09/16 10:13:17;;;;;;;10.95;5.15;;;;;;;20.13;63.77;97414.03;5006369;28;20026;-45
2021/09/16 10:15:46;;;;;;;6.60;4.82;;;;;;;20.14;63.70;97418.44;4988957;28;20109;-48
2021/09/16 10:18:12;;;;;;;8.40;5.70;;;;;;;20.14;63.63;97414.88;5003790;28;20029;-49
2021/09/16 10:20:37;;;;;;;9.60;5.40;;;;;;;20.14;63.56;97417.63;4999842;28;20679;-51
2021/09/16 10:23:07;;;;;;;8.13;5.25;;;;;;;20.15;63.32;97419.22;4993746;28;20044;-48
2021/09/16 10:25:33;;;;;;;8.95;5.68;;;;;;;20.07;63.60;97420.00;5005399;28;20439;-46
2021/09/16 10:28:04;;;;;;;9.75;5.95;;;;;;;20.02;63.41;97418.19;4988170;28;20033;-48
2021/09/16 10:30:32;;;;;;;8.20;5.50;;;;;;;19.95;63.43;97415.03;4999969;28;20036;-47
2021/09/16 10:33:06;;;;;;;8.38;5.43;;;;;;;20.01;63.30;97427.53;5005213;28;20030;-49
2021/09/16 10:35:35;;;;;;;8.68;5.70;;;;;;;20.05;63.03;97423.03;5006004;28;20206;-49
2021/09/16 10:38:28;;;;;;;9.13;5.55;;;;;;;20.06;63.29;97427.44;5005336;28;20061;-49
2021/09/16 10:41:15;;;;;;;8.82;5.32;;;;;;;20.09;63.45;97423.25;5010320;28;20056;-48
2021/09/16 10:43:43;;;;;;;8.98;5.72;;;;;;;20.06;63.38;97424.69;4987995;28;20600;-45
2021/09/16 10:46:28;;;;;;;9.20;6.05;;;;;;;20.10;63.54;97427.63;4975905;28;20050;-46
2021/09/16 10:48:55;;;;;;;9.88;6.13;;;;;;;20.04;63.33;97420.63;4968519;28;20031;-50
2021/09/16 10:51:59;;;;;;;9.25;5.88;;;;;;;20.09;63.45;97426.00;4968311;28;20137;-46
2021/09/16 10:54:24;;;;;;;9.35;5.97;;;;;;;20.10;63.16;97420.19;4965806;28;20031;-45
2021/09/16 10:57:08;;;;;;;8.60;5.50;;;;;;;20.12;63.12;97423.41;4967659;28;20038;-46
2021/09/16 10:59:51;;;;;;;10.45;5.80;;;;;;;20.11;62.93;97434.72;4968653;28;20074;-46
2021/09/16 11:02:17;;;;;;;10.82;6.78;;;;;;;20.04;63.05;97429.66;4968218;28;20034;-47
2021/09/16 11:04:54;;;;;;;14.23;7.07;;;;;;;19.87;63.06;97433.88;4968356;28;20023;-47
2021/09/16 11:07:31;;;;;;;11.13;6.82;;;;;;;19.79;63.36;97429.13;4968005;28;20054;-45
2021/09/16 11:10:17;;;;;;;10.77;6.80;;;;;;;19.91;63.19;97427.78;4967954;28;20105;-48
2021/09/16 11:12:45;;;;;;;10.23;5.95;;;;;;;19.97;63.37;97432.03;4969069;28;20046;-48
2021/09/16 11:15:13;;;;;;;10.20;6.72;;;;;;;20.00;63.29;97434.16;4992224;28;20035;-46
2021/09/16 11:17:40;;;;;;;11.20;6.32;;;;;;;19.97;63.04;97432.03;4986133;28;20137;-47
2021/09/16 11:20:07;;;;;;;9.05;5.88;;;;;;;19.88;63.48;97435.53;5004866;28;20109;-48
2021/09/16 11:22:32;;;;;;;9.25;5.75;;;;;;;19.93;63.62;97431.03;4998178;28;20486;-48
2021/09/16 11:24:58;;;;;;;9.52;5.95;;;;;;;19.99;63.45;97438.06;4988375;28;20029;-51
2021/09/16 11:27:26;;;;;;;9.10;5.95;;;;;;;19.98;63.37;97425.41;4996123;28;20669;-49
2021/09/16 11:29:53;;;;;;;9.30;5.63;;;;;;;20.00;63.18;97428.69;4994271;28;20058;-46
2021/09/16 11:32:18;;;;;;;10.07;6.30;;;;;;;20.00;63.38;97434.16;5001867;28;20022;-46